sensor_id;sensor_type;location;lat;lon;timestamp;pressure;altitude;pressure_sealevel;temperature;humidity
63285;BME280;49409;55.708;37.522;2023-03-15T00:00:38;98745.19;;;10.21;37.68
63285;BME280;49409;55.708;37.522;2023-03-15T00:03:03;98745.47;;;10.10;37.39
63285;BME280;49409;55.708;37.522;2023-03-15T00:05:30;98739.88;;;10.13;37.43
63285;BME280;49409;55.708;37.522;2023-03-15T00:07:56;98742.63;;;10.13;37.67
63285;BME280;49409;55.708;37.522;2023-03-15T00:10:21;98738.41;;;10.09;37.40
63285;BME280;49409;55.708;37.522;2023-03-15T00:12:47;98735.31;;;10.07;37.83
63285;BME280;49409;55.708;37.522;2023-03-15T00:15:12;98744.69;;;10.09;37.98
63285;BME280;49409;55.708;37.522;2023-03-15T00:17:39;98737.97;;;10.10;37.65
63285;BME280;49409;55.708;37.522;2023-03-15T00:20:04;98743.91;;;10.09;37.68
63285;BME280;49409;55.708;37.522;2023-03-15T00:22:30;98744.34;;;10.07;38.12
63285;BME280;49409;55.708;37.522;2023-03-15T00:24:55;98745.34;;;9.97;38.29
63285;BME280;49409;55.708;37.522;2023-03-15T00:27:21;98745.09;;;9.91;37.99
63285;BME280;49409;55.708;37.522;2023-03-15T00:29:46;98731.53;;;10.01;37.88
63285;BME280;49409;55.708;37.522;2023-03-15T00:32:12;98740.22;;;9.99;37.88
63285;BME280;49409;55.708;37.522;2023-03-15T00:34:37;98734.72;;;9.99;38.28
63285;BME280;49409;55.708;37.522;2023-03-15T00:37:02;98734.00;;;9.95;38.03
63285;BME280;49409;55.708;37.522;2023-03-15T00:39:28;98740.38;;;9.92;38.45
63285;BME280;49409;55.708;37.522;2023-03-15T00:41:53;98729.38;;;9.92;38.62
63285;BME280;49409;55.708;37.522;2023-03-15T00:44:21;98734.13;;;9.91;38.18
63285;BME280;49409;55.708;37.522;2023-03-15T00:46:47;98732.91;;;9.92;38.49
63285;BME280;49409;55.708;37.522;2023-03-15T00:49:12;98742.16;;;9.82;38.96
63285;BME280;49409;55.708;37.522;2023-03-15T00:51:37;98735.09;;;9.81;38.50
63285;BME280;49409;55.708;37.522;2023-03-15T00:54:03;98738.13;;;9.87;38.51
63285;BME280;49409;55.708;37.522;2023-03-15T00:56:28;98733.25;;;9.95;38.59
63285;BME280;49409;55.708;37.522;2023-03-15T00:58:56;98738.84;;;10.07;38.41
63285;BME280;49409;55.708;37.522;2023-03-15T01:01:23;98738.66;;;10.15;38.66
63285;BME280;49409;55.708;37.522;2023-03-15T01:03:49;98729.56;;;10.18;38.77
63285;BME280;49409;55.708;37.522;2023-03-15T01:06:16;98729.91;;;10.20;38.73
63285;BME280;49409;55.708;37.522;2023-03-15T01:08:42;98734.91;;;10.25;38.49
63285;BME280;49409;55.708;37.522;2023-03-15T01:11:08;98732.91;;;10.25;38.70
63285;BME280;49409;55.708;37.522;2023-03-15T01:13:34;98733.22;;;10.31;38.51
63285;BME280;49409;55.708;37.522;2023-03-15T01:16:00;98721.34;;;10.34;38.15
63285;BME280;49409;55.708;37.522;2023-03-15T01:18:25;98730.81;;;10.33;38.37
63285;BME280;49409;55.708;37.522;2023-03-15T01:20:51;98728.41;;;10.35;38.67
63285;BME280;49409;55.708;37.522;2023-03-15T01:23:16;98737.84;;;10.34;38.47
63285;BME280;49409;55.708;37.522;2023-03-15T01:25:41;98736.97;;;10.37;38.59
63285;BME280;49409;55.708;37.522;2023-03-15T01:28:07;98733.81;;;10.39;38.48
63285;BME280;49409;55.708;37.522;2023-03-15T01:30:32;98725.66;;;10.35;38.84
63285;BME280;49409;55.708;37.522;2023-03-15T01:32:58;98729.41;;;10.25;38.60
63285;BME280;49409;55.708;37.522;2023-03-15T01:35:23;98739.53;;;10.28;38.57
63285;BME280;49409;55.708;37.522;2023-03-15T01:37:49;98720.69;;;10.26;38.61
63285;BME280;49409;55.708;37.522;2023-03-15T01:40:15;98729.41;;;10.25;38.97
63285;BME280;49409;55.708;37.522;2023-03-15T01:42:50;98730.94;;;10.26;38.69
63285;BME280;49409;55.708;37.522;2023-03-15T01:48:00;98728.88;;;10.13;39.03
63285;BME280;49409;55.708;37.522;2023-03-15T01:50:25;98727.66;;;10.15;39.20
63285;BME280;49409;55.708;37.522;2023-03-15T01:52:50;98731.44;;;10.21;39.11
63285;BME280;49409;55.708;37.522;2023-03-15T01:55:16;98724.00;;;10.21;39.49
63285;BME280;49409;55.708;37.522;2023-03-15T01:57:50;98739.53;;;10.28;39.14
63285;BME280;49409;55.708;37.522;2023-03-15T02:00:20;98732.50;;;10.27;39.10
63285;BME280;49409;55.708;37.522;2023-03-15T02:02:46;98732.50;;;10.27;39.10
63285;BME280;49409;55.708;37.522;2023-03-15T02:05:15;98722.78;;;10.22;39.50
63285;BME280;49409;55.708;37.522;2023-03-15T02:07:41;98724.00;;;10.21;39.50
63285;BME280;49409;55.708;37.522;2023-03-15T02:10:14;98734.03;;;10.28;39.04
63285;BME280;49409;55.708;37.522;2023-03-15T02:12:44;98733.34;;;10.24;39.63
63285;BME280;49409;55.708;37.522;2023-03-15T02:15:11;98732.16;;;10.25;39.28
63285;BME280;49409;55.708;37.522;2023-03-15T02:17:37;98736.78;;;10.28;39.23
63285;BME280;49409;55.708;37.522;2023-03-15T02:28:05;98741.81;;;10.33;39.53
63285;BME280;49409;55.708;37.522;2023-03-15T02:30:30;98738.72;;;10.31;39.72
63285;BME280;49409;55.708;37.522;2023-03-15T02:32:56;98742.56;;;10.34;39.66
63285;BME280;49409;55.708;37.522;2023-03-15T02:35:26;98742.16;;;10.35;39.39
63285;BME280;49409;55.708;37.522;2023-03-15T02:37:52;98726.06;;;10.34;39.67
63285;BME280;49409;55.708;37.522;2023-03-15T02:40:19;98738.72;;;10.31;39.47
63285;BME280;49409;55.708;37.522;2023-03-15T02:42:45;98738.00;;;10.27;39.41
63285;BME280;49409;55.708;37.522;2023-03-15T02:45:11;98742.09;;;10.19;39.50
63285;BME280;49409;55.708;37.522;2023-03-15T02:47:37;98735.06;;;10.18;39.81
63285;BME280;49409;55.708;37.522;2023-03-15T02:50:03;98736.59;;;10.19;39.92
63285;BME280;49409;55.708;37.522;2023-03-15T02:52:29;98739.47;;;10.15;39.88
63285;BME280;49409;55.708;37.522;2023-03-15T02:54:54;98741.69;;;10.04;40.12
63285;BME280;49409;55.708;37.522;2023-03-15T02:57:20;98733.63;;;10.13;39.90
63285;BME280;49409;55.708;37.522;2023-03-15T02:59:45;98731.63;;;10.13;39.77
63285;BME280;49409;55.708;37.522;2023-03-15T03:02:11;98735.91;;;10.15;39.61
63285;BME280;49409;55.708;37.522;2023-03-15T03:04:37;98734.53;;;10.06;39.85
63285;BME280;49409;55.708;37.522;2023-03-15T03:07:02;98733.94;;;9.99;39.92
63285;BME280;49409;55.708;37.522;2023-03-15T03:09:28;98733.59;;;9.97;40.01
63285;BME280;49409;55.708;37.522;2023-03-15T03:11:53;98735.84;;;10.02;40.20
63285;BME280;49409;55.708;37.522;2023-03-15T03:14:18;98742.59;;;9.97;40.44
63285;BME280;49409;55.708;37.522;2023-03-15T03:16:44;98739.44;;;9.99;39.96
63285;BME280;49409;55.708;37.522;2023-03-15T03:19:09;98741.75;;;10.00;39.88
63285;BME280;49409;55.708;37.522;2023-03-15T03:21:38;98742.00;;;9.89;40.30
63285;BME280;49409;55.708;37.522;2023-03-15T03:24:03;98737.28;;;9.90;40.40
63285;BME280;49409;55.708;37.522;2023-03-15T03:26:28;98738.06;;;9.90;40.11
63285;BME280;49409;55.708;37.522;2023-03-15T03:28:56;98742.34;;;9.91;40.03
63285;BME280;49409;55.708;37.522;2023-03-15T03:31:23;98744.84;;;9.86;40.36
63285;BME280;49409;55.708;37.522;2023-03-15T03:33:49;98745.59;;;9.86;40.07
63285;BME280;49409;55.708;37.522;2023-03-15T03:36:14;98742.00;;;9.89;40.00
63285;BME280;49409;55.708;37.522;2023-03-15T03:38:43;98744.31;;;9.91;40.20
63285;BME280;49409;55.708;37.522;2023-03-15T03:41:10;98748.28;;;9.90;40.11
63285;BME280;49409;55.708;37.522;2023-03-15T03:43:36;98738.81;;;9.91;40.16
63285;BME280;49409;55.708;37.522;2023-03-15T03:46:01;98741.91;;;9.93;39.67
63285;BME280;49409;55.708;37.522;2023-03-15T03:48:26;98749.03;;;9.90;40.10
63285;BME280;49409;55.708;37.522;2023-03-15T03:50:52;98750.59;;;9.91;40.05
63285;BME280;49409;55.708;37.522;2023-03-15T03:53:17;98755.75;;;9.89;40.41
63285;BME280;49409;55.708;37.522;2023-03-15T03:55:42;98748.28;;;9.90;40.33
63285;BME280;49409;55.708;37.522;2023-03-15T03:58:08;98760.47;;;9.89;40.55
63285;BME280;49409;55.708;37.522;2023-03-15T04:00:33;98762.78;;;9.90;40.22
63285;BME280;49409;55.708;37.522;2023-03-15T04:02:59;98757.72;;;9.89;40.43
63285;BME280;49409;55.708;37.522;2023-03-15T04:05:26;98760.91;;;9.87;40.39
63285;BME280;49409;55.708;37.522;2023-03-15T04:07:51;98762.94;;;9.83;40.62
63285;BME280;49409;55.708;37.522;2023-03-15T04:10:17;98756.31;;;9.81;40.58
63285;BME280;49409;55.708;37.522;2023-03-15T04:12:42;98766.63;;;9.77;40.37
63285;BME280;49409;55.708;37.522;2023-03-15T04:15:08;98767.31;;;9.81;40.67
63285;BME280;49409;55.708;37.522;2023-03-15T04:17:33;98758.66;;;9.82;40.78
63285;BME280;49409;55.708;37.522;2023-03-15T04:19:59;98765.34;;;9.81;40.85
63285;BME280;49409;55.708;37.522;2023-03-15T04:22:26;98766.47;;;9.84;40.58
63285;BME280;49409;55.708;37.522;2023-03-15T04:24:51;98764.63;;;9.77;40.82
63285;BME280;49409;55.708;37.522;2023-03-15T04:27:16;98750.00;;;9.84;40.40
63285;BME280;49409;55.708;37.522;2023-03-15T04:29:42;98754.28;;;9.85;40.41
63285;BME280;49409;55.708;37.522;2023-03-15T04:32:08;98765.09;;;9.92;40.17
63285;BME280;49409;55.708;37.522;2023-03-15T04:34:33;98762.28;;;9.96;40.28
63285;BME280;49409;55.708;37.522;2023-03-15T04:37:03;98756.88;;;9.92;40.42
63285;BME280;49409;55.708;37.522;2023-03-15T04:39:28;98769.25;;;10.00;40.53
63285;BME280;49409;55.708;37.522;2023-03-15T04:41:53;98779.38;;;10.03;40.08
63285;BME280;49409;55.708;37.522;2023-03-15T04:44:19;98775.44;;;10.04;40.53
63285;BME280;49409;55.708;37.522;2023-03-15T04:46:44;98783.88;;;10.13;40.21
63285;BME280;49409;55.708;37.522;2023-03-15T04:49:10;98779.75;;;10.22;40.37
63285;BME280;49409;55.708;37.522;2023-03-15T04:51:35;98790.41;;;10.20;40.13
63285;BME280;49409;55.708;37.522;2023-03-15T04:54:01;98778.19;;;10.21;39.96
63285;BME280;49409;55.708;37.522;2023-03-15T04:56:27;98790.66;;;10.25;40.17
63285;BME280;49409;55.708;37.522;2023-03-15T04:58:53;98786.69;;;10.26;39.82
63285;BME280;49409;55.708;37.522;2023-03-15T05:01:18;98795.41;;;10.25;40.19
63285;BME280;49409;55.708;37.522;2023-03-15T05:03:44;98803.19;;;10.26;39.91
63285;BME280;49409;55.708;37.522;2023-03-15T05:06:10;98806.75;;;10.27;39.79
63285;BME280;49409;55.708;37.522;2023-03-15T05:08:35;98803.66;;;10.25;40.22
63285;BME280;49409;55.708;37.522;2023-03-15T05:11:04;98799.00;;;10.22;40.13
63285;BME280;49409;55.708;37.522;2023-03-15T05:13:29;98803.28;;;10.23;39.92
63285;BME280;49409;55.708;37.522;2023-03-15T05:15:55;98804.00;;;10.27;39.87
63285;BME280;49409;55.708;37.522;2023-03-15T05:18:20;98819.66;;;10.30;39.83
63285;BME280;49409;55.708;37.522;2023-03-15T05:20:46;98816.53;;;10.28;39.96
63285;BME280;49409;55.708;37.522;2023-03-15T05:23:11;98822.88;;;10.25;39.69
63285;BME280;49409;55.708;37.522;2023-03-15T05:25:37;98822.03;;;10.28;39.64
63285;BME280;49409;55.708;37.522;2023-03-15T05:28:03;98817.47;;;10.21;39.92
63285;BME280;49409;55.708;37.522;2023-03-15T05:30:29;98815.00;;;10.27;39.92
63285;BME280;49409;55.708;37.522;2023-03-15T05:32:55;98824.41;;;10.26;39.67
63285;BME280;49409;55.708;37.522;2023-03-15T05:35:20;98821.44;;;10.37;39.66
63285;BME280;49409;55.708;37.522;2023-03-15T05:37:48;98826.34;;;10.45;39.52
63285;BME280;49409;55.708;37.522;2023-03-15T05:40:13;98830.41;;;10.41;39.58
63285;BME280;49409;55.708;37.522;2023-03-15T05:42:39;98838.75;;;10.54;39.26
63285;BME280;49409;55.708;37.522;2023-03-15T05:45:05;98850.34;;;10.61;39.43
63285;BME280;49409;55.708;37.522;2023-03-15T05:47:31;98838.31;;;10.55;39.11
63285;BME280;49409;55.708;37.522;2023-03-15T05:49:56;98848.53;;;10.71;39.25
63285;BME280;49409;55.708;37.522;2023-03-15T05:52:22;98849.91;;;10.79;38.80
63285;BME280;49409;55.708;37.522;2023-03-15T05:54:48;98845.09;;;10.83;38.74
63285;BME280;49409;55.708;37.522;2023-03-15T05:57:13;98849.28;;;11.04;38.93
63285;BME280;49409;55.708;37.522;2023-03-15T05:59:38;98846.78;;;11.10;38.73
63285;BME280;49409;55.708;37.522;2023-03-15T06:02:04;98845.06;;;11.16;38.30
63285;BME280;49409;55.708;37.522;2023-03-15T06:04:29;98844.50;;;11.21;38.44
63285;BME280;49409;55.708;37.522;2023-03-15T06:06:54;98853.09;;;11.23;38.79
63285;BME280;49409;55.708;37.522;2023-03-15T06:09:20;98848.66;;;11.29;38.53
63285;BME280;49409;55.708;37.522;2023-03-15T06:11:45;98856.19;;;11.42;38.42
63285;BME280;49409;55.708;37.522;2023-03-15T06:14:10;98852.19;;;11.43;38.53
63285;BME280;49409;55.708;37.522;2023-03-15T06:16:36;98856.41;;;11.47;38.26
63285;BME280;49409;55.708;37.522;2023-03-15T06:19:01;98850.09;;;11.34;38.21
63285;BME280;49409;55.708;37.522;2023-03-15T06:21:27;98858.78;;;11.32;38.57
63285;BME280;49409;55.708;37.522;2023-03-15T06:23:52;98857.25;;;11.31;38.31
63285;BME280;49409;55.708;37.522;2023-03-15T06:26:18;98863.28;;;11.26;38.41
63285;BME280;49409;55.708;37.522;2023-03-15T06:28:43;98858.88;;;11.29;38.20
63285;BME280;49409;55.708;37.522;2023-03-15T06:31:10;98867.56;;;11.27;38.32
63285;BME280;49409;55.708;37.522;2023-03-15T06:33:35;98873.94;;;11.24;38.23
63285;BME280;49409;55.708;37.522;2023-03-15T06:36:01;98862.16;;;11.24;38.59
63285;BME280;49409;55.708;37.522;2023-03-15T06:38:26;98866.88;;;11.23;38.40
63285;BME280;49409;55.708;37.522;2023-03-15T06:40:51;98878.56;;;11.27;38.49
63285;BME280;49409;55.708;37.522;2023-03-15T06:43:17;98874.63;;;11.28;38.23
63285;BME280;49409;55.708;37.522;2023-03-15T06:45:46;98893.94;;;11.41;38.66
63285;BME280;49409;55.708;37.522;2023-03-15T06:48:12;98873.81;;;11.44;38.25
63285;BME280;49409;55.708;37.522;2023-03-15T06:50:37;98880.16;;;11.58;38.32
63285;BME280;49409;55.708;37.522;2023-03-15T06:53:02;98884.88;;;11.57;37.62
63285;BME280;49409;55.708;37.522;2023-03-15T06:55:28;98894.97;;;11.77;37.56
63285;BME280;49409;55.708;37.522;2023-03-15T06:57:53;98882.16;;;11.99;37.77
63285;BME280;49409;55.708;37.522;2023-03-15T07:00:19;98881.53;;;12.21;37.53
63285;BME280;49409;55.708;37.522;2023-03-15T07:02:44;98887.47;;;12.32;37.58
63285;BME280;49409;55.708;37.522;2023-03-15T07:05:09;98887.59;;;12.41;36.86
63285;BME280;49409;55.708;37.522;2023-03-15T07:07:35;98891.38;;;12.60;37.01
63285;BME280;49409;55.708;37.522;2023-03-15T07:10:00;98880.88;;;12.68;37.21
63285;BME280;49409;55.708;37.522;2023-03-15T07:12:25;98876.88;;;12.82;37.21
63285;BME280;49409;55.708;37.522;2023-03-15T07:14:51;98885.47;;;12.97;37.10
63285;BME280;49409;55.708;37.522;2023-03-15T07:17:16;98893.84;;;13.06;36.71
63285;BME280;49409;55.708;37.522;2023-03-15T07:19:42;98894.06;;;12.99;36.95
63285;BME280;49409;55.708;37.522;2023-03-15T07:22:07;98890.09;;;13.00;37.15
63285;BME280;49409;55.708;37.522;2023-03-15T07:24:32;98894.16;;;13.08;36.97
63285;BME280;49409;55.708;37.522;2023-03-15T07:26:58;98910.94;;;13.14;37.11
63285;BME280;49409;55.708;37.522;2023-03-15T07:29:23;98899.13;;;13.13;36.65
63285;BME280;49409;55.708;37.522;2023-03-15T07:31:49;98904.72;;;13.22;37.03
63285;BME280;49409;55.708;37.522;2023-03-15T07:34:14;98919.00;;;13.34;36.48
63285;BME280;49409;55.708;37.522;2023-03-15T07:36:39;98904.59;;;13.39;36.36
63285;BME280;49409;55.708;37.522;2023-03-15T07:39:05;98912.97;;;13.48;36.11
63285;BME280;49409;55.708;37.522;2023-03-15T07:41:30;98911.28;;;13.51;36.20
63285;BME280;49409;55.708;37.522;2023-03-15T07:43:56;98914.13;;;13.38;36.25
63285;BME280;49409;55.708;37.522;2023-03-15T07:46:21;98911.91;;;13.33;36.61
63285;BME280;49409;55.708;37.522;2023-03-15T07:48:46;98917.63;;;13.38;36.52
63285;BME280;49409;55.708;37.522;2023-03-15T07:51:12;98909.31;;;13.51;36.62
63285;BME280;49409;55.708;37.522;2023-03-15T07:53:37;98913.38;;;13.59;36.46
63285;BME280;49409;55.708;37.522;2023-03-15T07:56:03;98917.66;;;13.60;36.04
63285;BME280;49409;55.708;37.522;2023-03-15T07:58:28;98916.47;;;13.61;36.02
63285;BME280;49409;55.708;37.522;2023-03-15T08:00:54;98914.91;;;13.60;36.36
63285;BME280;49409;55.708;37.522;2023-03-15T08:03:20;98911.81;;;13.58;36.19
63285;BME280;49409;55.708;37.522;2023-03-15T08:05:46;98918.00;;;13.62;35.99
63285;BME280;49409;55.708;37.522;2023-03-15T08:08:11;98919.34;;;13.58;36.34
63285;BME280;49409;55.708;37.522;2023-03-15T08:10:37;98917.63;;;13.51;36.08
63285;BME280;49409;55.708;37.522;2023-03-15T08:13:02;98922.03;;;13.48;36.29
63285;BME280;49409;55.708;37.522;2023-03-15T08:15:27;98925.06;;;13.41;35.91
63285;BME280;49409;55.708;37.522;2023-03-15T08:17:53;98917.09;;;13.43;35.94
63285;BME280;49409;55.708;37.522;2023-03-15T08:20:18;98926.38;;;13.37;36.25
63285;BME280;49409;55.708;37.522;2023-03-15T08:22:47;98929.13;;;13.37;36.21
63285;BME280;49409;55.708;37.522;2023-03-15T08:25:14;98932.09;;;13.42;35.93
63285;BME280;49409;55.708;37.522;2023-03-15T08:27:39;98928.91;;;13.44;36.21
63285;BME280;49409;55.708;37.522;2023-03-15T08:30:06;98939.06;;;13.47;36.24
63285;BME280;49409;55.708;37.522;2023-03-15T08:32:32;98918.50;;;13.48;36.04
63285;BME280;49409;55.708;37.522;2023-03-15T08:34:58;98939.97;;;13.44;36.29
63285;BME280;49409;55.708;37.522;2023-03-15T08:37:24;98937.75;;;13.39;36.22
63285;BME280;49409;55.708;37.522;2023-03-15T08:39:49;98938.88;;;13.41;36.52
63285;BME280;49409;55.708;37.522;2023-03-15T08:42:25;98930.03;;;13.34;36.35
63285;BME280;49409;55.708;37.522;2023-03-15T08:44:51;98934.66;;;13.37;36.63
63285;BME280;49409;55.708;37.522;2023-03-15T08:47:16;98944.19;;;13.36;36.75
63285;BME280;49409;55.708;37.522;2023-03-15T08:49:41;98946.63;;;13.34;36.53
63285;BME280;49409;55.708;37.522;2023-03-15T08:52:07;98933.13;;;13.36;36.50
63285;BME280;49409;55.708;37.522;2023-03-15T08:54:32;98911.78;;;13.36;36.63
63285;BME280;49409;55.708;37.522;2023-03-15T08:56:57;98942.19;;;13.23;36.74
63285;BME280;49409;55.708;37.522;2023-03-15T08:59:22;98940.53;;;13.26;36.75
63285;BME280;49409;55.708;37.522;2023-03-15T09:01:48;98934.00;;;13.33;36.83
63285;BME280;49409;55.708;37.522;2023-03-15T09:04:13;98934.75;;;13.46;36.72
63285;BME280;49409;55.708;37.522;2023-03-15T09:06:38;98938.94;;;13.51;36.77
63285;BME280;49409;55.708;37.522;2023-03-15T09:09:04;98931.75;;;13.53;36.63
63285;BME280;49409;55.708;37.522;2023-03-15T09:11:30;98927.28;;;13.68;36.73
63285;BME280;49409;55.708;37.522;2023-03-15T09:13:56;98934.09;;;13.77;36.58
63285;BME280;49409;55.708;37.522;2023-03-15T09:16:21;98927.78;;;13.76;36.35
63285;BME280;49409;55.708;37.522;2023-03-15T09:18:46;98929.22;;;13.81;36.59
63285;BME280;49409;55.708;37.522;2023-03-15T09:21:12;98927.94;;;13.73;36.44
63285;BME280;49409;55.708;37.522;2023-03-15T09:23:37;98919.16;;;13.74;36.64
63285;BME280;49409;55.708;37.522;2023-03-15T09:26:02;98926.47;;;13.68;36.56
63285;BME280;49409;55.708;37.522;2023-03-15T09:28:28;98928.16;;;13.65;36.87
63285;BME280;49409;55.708;37.522;2023-03-15T09:30:53;98930.59;;;13.63;37.02
63285;BME280;49409;55.708;37.522;2023-03-15T09:33:19;98925.28;;;13.69;36.93
63285;BME280;49409;55.708;37.522;2023-03-15T09:35:48;98929.56;;;13.70;36.93
63285;BME280;49409;55.708;37.522;2023-03-15T09:38:14;98926.47;;;13.68;36.99
63285;BME280;49409;55.708;37.522;2023-03-15T09:40:40;98919.09;;;13.65;36.67
63285;BME280;49409;55.708;37.522;2023-03-15T09:43:15;98922.97;;;13.67;36.85
63285;BME280;49409;55.708;37.522;2023-03-15T09:45:52;98924.03;;;13.70;36.90
63285;BME280;49409;55.708;37.522;2023-03-15T09:48:23;98924.50;;;13.68;36.88
63285;BME280;49409;55.708;37.522;2023-03-15T09:56:24;98922.84;;;13.71;37.00
63285;BME280;49409;55.708;37.522;2023-03-15T09:58:52;98926.56;;;13.77;37.08
63285;BME280;49409;55.708;37.522;2023-03-15T10:01:19;98926.38;;;13.72;37.09
63285;BME280;49409;55.708;37.522;2023-03-15T10:03:49;98925.81;;;13.77;37.13
63285;BME280;49409;55.708;37.522;2023-03-15T10:08:52;98924.97;;;13.89;37.07
63285;BME280;49409;55.708;37.522;2023-03-15T10:16:39;98916.78;;;14.07;36.80
63285;BME280;49409;55.708;37.522;2023-03-15T10:24:20;98904.50;;;14.08;36.80
63285;BME280;49409;55.708;37.522;2023-03-15T10:26:48;98913.88;;;14.11;36.88
63285;BME280;49409;55.708;37.522;2023-03-15T10:29:16;98915.44;;;14.12;37.07
63285;BME280;49409;55.708;37.522;2023-03-15T10:31:44;98912.56;;;14.25;36.85
63285;BME280;49409;55.708;37.522;2023-03-15T10:34:11;98914.75;;;14.30;36.59
63285;BME280;49409;55.708;37.522;2023-03-15T10:36:36;98930.31;;;14.37;36.88
63285;BME280;49409;55.708;37.522;2023-03-15T10:39:08;98928.38;;;14.46;36.63
63285;BME280;49409;55.708;37.522;2023-03-15T10:41:41;98927.84;;;14.61;36.60
63285;BME280;49409;55.708;37.522;2023-03-15T10:44:17;98929.28;;;14.75;36.48
63285;BME280;49409;55.708;37.522;2023-03-15T10:47:26;98934.41;;;14.85;36.39
63285;BME280;49409;55.708;37.522;2023-03-15T10:49:36;98928.56;;;14.93;36.08
63285;BME280;49409;55.708;37.522;2023-03-15T10:52:03;98923.81;;;14.93;36.14
63285;BME280;49409;55.708;37.522;2023-03-15T10:54:30;98943.97;;;14.94;36.16
63285;BME280;49409;55.708;37.522;2023-03-15T10:59:25;98923.28;;;14.76;35.98
63285;BME280;49409;55.708;37.522;2023-03-15T11:01:52;98922.97;;;14.74;36.54
63285;BME280;49409;55.708;37.522;2023-03-15T11:04:19;98932.53;;;14.73;36.52
63285;BME280;49409;55.708;37.522;2023-03-15T11:06:49;98925.09;;;14.70;36.48
63285;BME280;49409;55.708;37.522;2023-03-15T11:09:18;98924.84;;;14.77;36.50
63285;BME280;49409;55.708;37.522;2023-03-15T11:11:50;98926.09;;;14.85;36.46
63285;BME280;49409;55.708;37.522;2023-03-15T11:14:16;98937.16;;;14.85;36.44
63285;BME280;49409;55.708;37.522;2023-03-15T11:16:45;98939.50;;;14.87;36.31
63285;BME280;49409;55.708;37.522;2023-03-15T11:19:11;98943.47;;;14.86;36.33
63285;BME280;49409;55.708;37.522;2023-03-15T11:21:42;98939.31;;;14.91;36.34
63285;BME280;49409;55.708;37.522;2023-03-15T11:24:10;98937.50;;;14.97;36.13
63285;BME280;49409;55.708;37.522;2023-03-15T11:26:43;98929.19;;;14.87;36.25
63285;BME280;49409;55.708;37.522;2023-03-15T11:29:23;98928.09;;;14.85;36.43
63285;BME280;49409;55.708;37.522;2023-03-15T11:31:49;98932.97;;;14.81;36.63
63285;BME280;49409;55.708;37.522;2023-03-15T11:37:02;98935.34;;;14.92;36.43
63285;BME280;49409;55.708;37.522;2023-03-15T11:39:35;98921.81;;;14.94;36.23
63285;BME280;49409;55.708;37.522;2023-03-15T11:42:04;98928.56;;;14.93;36.23
63285;BME280;49409;55.708;37.522;2023-03-15T11:44:36;98921.19;;;14.90;36.27
63285;BME280;49409;55.708;37.522;2023-03-15T11:47:04;98919.63;;;14.88;36.38
63285;BME280;49409;55.708;37.522;2023-03-15T11:49:42;98917.97;;;14.91;36.20
63285;BME280;49409;55.708;37.522;2023-03-15T11:52:10;98922.56;;;14.85;36.55
63285;BME280;49409;55.708;37.522;2023-03-15T11:54:36;98915.31;;;14.87;36.43
63285;BME280;49409;55.708;37.522;2023-03-15T11:57:05;98916.41;;;14.90;36.53
63285;BME280;49409;55.708;37.522;2023-03-15T11:59:32;98923.03;;;14.93;36.38
63285;BME280;49409;55.708;37.522;2023-03-15T12:15:42;98933.09;;;14.68;36.38
63285;BME280;49409;55.708;37.522;2023-03-15T12:17:52;98939.84;;;14.67;36.65
63285;BME280;49409;55.708;37.522;2023-03-15T12:22:48;98940.53;;;14.49;36.81
63285;BME280;49409;55.708;37.522;2023-03-15T12:25:15;98944.59;;;14.35;36.90
63285;BME280;49409;55.708;37.522;2023-03-15T12:27:47;98940.69;;;14.23;37.02
63285;BME280;49409;55.708;37.522;2023-03-15T12:30:18;98943.75;;;14.16;37.31
63285;BME280;49409;55.708;37.522;2023-03-15T12:32:46;98934.94;;;14.08;37.42
63285;BME280;49409;55.708;37.522;2023-03-15T12:35:15;98944.44;;;14.07;37.72
63285;BME280;49409;55.708;37.522;2023-03-15T12:37:42;98946.00;;;14.08;37.35
63285;BME280;49409;55.708;37.522;2023-03-15T12:52:58;98943.63;;;14.20;37.15
63285;BME280;49409;55.708;37.522;2023-03-15T12:55:26;98942.94;;;14.16;37.34
63285;BME280;49409;55.708;37.522;2023-03-15T12:57:52;98949.66;;;14.05;37.30
63285;BME280;49409;55.708;37.522;2023-03-15T13:00:20;98951.72;;;13.92;37.48
63285;BME280;49409;55.708;37.522;2023-03-15T13:05:20;98956.59;;;13.88;37.54
63285;BME280;49409;55.708;37.522;2023-03-15T13:08:07;98952.28;;;13.87;37.54
63285;BME280;49409;55.708;37.522;2023-03-15T13:16:28;98950.69;;;13.77;37.81
63285;BME280;49409;55.708;37.522;2023-03-15T13:21:30;98938.19;;;13.72;37.79
63285;BME280;49409;55.708;37.522;2023-03-15T13:23:57;98946.81;;;13.74;37.89
63285;BME280;49409;55.708;37.522;2023-03-15T13:29:18;98933.44;;;13.73;37.73
63285;BME280;49409;55.708;37.522;2023-03-15T13:31:58;98941.09;;;13.68;38.07
63285;BME280;49409;55.708;37.522;2023-03-15T13:34:24;98931.25;;;13.67;37.94
63285;BME280;49409;55.708;37.522;2023-03-15T13:36:53;98934.47;;;13.66;37.80
63285;BME280;49409;55.708;37.522;2023-03-15T13:39:26;98924.19;;;13.66;37.99
63285;BME280;49409;55.708;37.522;2023-03-15T13:41:59;98920.59;;;13.57;38.03
63285;BME280;49409;55.708;37.522;2023-03-15T13:44:25;98922.50;;;13.47;38.35
63285;BME280;49409;55.708;37.522;2023-03-15T13:46:52;98926.69;;;13.39;38.23
63285;BME280;49409;55.708;37.522;2023-03-15T13:49:18;98927.59;;;13.36;38.35
63285;BME280;49409;55.708;37.522;2023-03-15T13:51:43;98925.41;;;13.31;38.26
63285;BME280;49409;55.708;37.522;2023-03-15T13:56:36;98925.19;;;13.12;39.03
63285;BME280;49409;55.708;37.522;2023-03-15T13:59:02;98919.25;;;13.14;38.84
63285;BME280;49409;55.708;37.522;2023-03-15T14:01:28;98915.03;;;13.09;39.30
63285;BME280;49409;55.708;37.522;2023-03-15T14:04:00;98915.81;;;13.09;38.74
63285;BME280;49409;55.708;37.522;2023-03-15T14:06:27;98920.56;;;13.09;38.69
63285;BME280;49409;55.708;37.522;2023-03-15T14:08:53;98919.34;;;13.10;38.86